sensor_id;sensor_type;location;lat;lon;timestamp;pressure;altitude;pressure_sealevel;temperature;humidity
70954;BME280;58618;47.490;8.736;2023-05-19T00:01:34;96829.91;;;9.65;100.00
70954;BME280;58618;47.490;8.736;2023-05-19T00:04:22;96823.97;;;9.55;100.00
70954;BME280;58618;47.490;8.736;2023-05-19T00:07:10;96828.09;;;9.46;100.00
70954;BME280;58618;47.490;8.736;2023-05-19T00:09:59;96825.25;;;9.52;100.00
70954;BME280;58618;47.490;8.736;2023-05-19T00:12:47;96822.19;;;9.60;100.00
70954;BME280;58618;47.490;8.736;2023-05-19T00:15:35;96822.72;;;9.67;100.00
70954;BME280;58618;47.490;8.736;2023-05-19T00:18:23;96817.53;;;9.62;100.00
70954;BME280;58618;47.490;8.736;2023-05-19T00:21:11;96820.63;;;9.59;100.00
70954;BME280;58618;47.490;8.736;2023-05-19T00:23:58;96819.06;;;9.79;100.00
70954;BME280;58618;47.490;8.736;2023-05-19T00:26:47;96822.97;;;9.61;100.00
70954;BME280;58618;47.490;8.736;2023-05-19T00:29:35;96818.59;;;9.66;100.00
70954;BME280;58618;47.490;8.736;2023-05-19T00:32:22;96818.56;;;9.77;100.00
70954;BME280;58618;47.490;8.736;2023-05-19T00:35:10;96812.91;;;9.69;100.00
70954;BME280;58618;47.490;8.736;2023-05-19T00:37:57;96806.22;;;9.58;100.00
70954;BME280;58618;47.490;8.736;2023-05-19T00:40:44;96803.63;;;9.53;100.00
70954;BME280;58618;47.490;8.736;2023-05-19T00:43:33;96811.88;;;9.50;100.00
70954;BME280;58618;47.490;8.736;2023-05-19T00:46:20;96797.47;;;9.44;100.00
70954;BME280;58618;47.490;8.736;2023-05-19T00:49:07;96811.88;;;9.40;100.00
70954;BME280;58618;47.490;8.736;2023-05-19T00:51:55;96803.38;;;9.45;100.00
70954;BME280;58618;47.490;8.736;2023-05-19T00:54:43;96799.50;;;9.42;100.00
70954;BME280;58618;47.490;8.736;2023-05-19T00:57:30;96806.19;;;9.33;100.00
70954;BME280;58618;47.490;8.736;2023-05-19T01:00:19;96800.81;;;9.29;100.00
70954;BME280;58618;47.490;8.736;2023-05-19T01:03:07;96796.69;;;9.33;100.00
70954;BME280;58618;47.490;8.736;2023-05-19T01:05:56;96792.81;;;9.31;100.00
70954;BME280;58618;47.490;8.736;2023-05-19T01:08:46;96786.63;;;9.27;100.00
70954;BME280;58618;47.490;8.736;2023-05-19T01:11:34;96790.22;;;9.26;100.00
70954;BME280;58618;47.490;8.736;2023-05-19T01:14:21;96787.66;;;9.21;100.00
70954;BME280;58618;47.490;8.736;2023-05-19T01:17:14;96784.06;;;9.17;100.00
70954;BME280;58618;47.490;8.736;2023-05-19T01:20:11;96783.03;;;9.18;100.00
70954;BME280;58618;47.490;8.736;2023-05-19T01:23:19;96780.47;;;9.33;100.00
70954;BME280;58618;47.490;8.736;2023-05-19T01:26:28;96784.59;;;9.29;100.00
70954;BME280;58618;47.490;8.736;2023-05-19T01:29:40;96786.63;;;9.27;100.00
70954;BME280;58618;47.490;8.736;2023-05-19T01:32:29;96780.47;;;9.33;100.00
70954;BME280;58618;47.490;8.736;2023-05-19T01:35:17;96783.03;;;9.28;100.00
70954;BME280;58618;47.490;8.736;2023-05-19T01:38:08;96785.09;;;9.36;100.00
70954;BME280;58618;47.490;8.736;2023-05-19T01:40:56;96789.97;;;9.32;100.00
70954;BME280;58618;47.490;8.736;2023-05-19T01:43:44;96787.16;;;9.34;100.00
70954;BME280;58618;47.490;8.736;2023-05-19T01:46:32;96787.94;;;9.35;100.00
70954;BME280;58618;47.490;8.736;2023-05-19T01:49:21;96791.78;;;9.47;100.00
70954;BME280;58618;47.490;8.736;2023-05-19T01:52:08;96793.34;;;9.48;100.00
70954;BME280;58618;47.490;8.736;2023-05-19T01:54:55;96798.00;;;9.51;100.00
70954;BME280;58618;47.490;8.736;2023-05-19T01:57:53;96799.00;;;9.45;100.00
70954;BME280;58618;47.490;8.736;2023-05-19T02:00:51;96793.59;;;9.57;100.00
70954;BME280;58618;47.490;8.736;2023-05-19T02:03:49;96793.34;;;9.58;100.00
70954;BME280;58618;47.490;8.736;2023-05-19T02:06:44;96790.25;;;9.61;100.00
70954;BME280;58618;47.490;8.736;2023-05-19T02:09:37;96803.63;;;9.68;100.00
70954;BME280;58618;47.490;8.736;2023-05-19T02:12:29;96800.28;;;9.73;100.00
70954;BME280;58618;47.490;8.736;2023-05-19T02:15:20;96796.41;;;9.81;100.00
70954;BME280;58618;47.490;8.736;2023-05-19T02:18:09;96795.38;;;9.87;100.00
70954;BME280;58618;47.490;8.736;2023-05-19T02:20:57;96803.34;;;9.85;100.00
70954;BME280;58618;47.490;8.736;2023-05-19T02:23:46;96797.41;;;9.90;100.00
70954;BME280;58618;47.490;8.736;2023-05-19T02:26:33;96796.91;;;9.98;100.00
70954;BME280;58618;47.490;8.736;2023-05-19T02:29:21;96797.41;;;9.95;100.00
70954;BME280;58618;47.490;8.736;2023-05-19T02:32:09;96797.94;;;9.97;100.00
70954;BME280;58618;47.490;8.736;2023-05-19T02:34:56;96785.06;;;9.92;100.00
70954;BME280;58618;47.490;8.736;2023-05-19T02:37:43;96789.19;;;9.98;100.00
70954;BME280;58618;47.490;8.736;2023-05-19T02:40:32;96788.66;;;9.96;100.00
70954;BME280;58618;47.490;8.736;2023-05-19T02:43:19;96785.06;;;9.92;100.00
70954;BME280;58618;47.490;8.736;2023-05-19T02:46:07;96784.53;;;9.90;100.00
70954;BME280;58618;47.490;8.736;2023-05-19T02:48:54;96783.00;;;9.89;100.00
70954;BME280;58618;47.490;8.736;2023-05-19T02:51:41;96779.91;;;9.87;100.00
70954;BME280;58618;47.490;8.736;2023-05-19T02:54:29;96777.34;;;9.82;100.00
70954;BME280;58618;47.490;8.736;2023-05-19T02:57:17;96775.81;;;9.81;100.00
70954;BME280;58618;47.490;8.736;2023-05-19T03:00:06;96774.25;;;9.85;100.00
70954;BME280;58618;47.490;8.736;2023-05-19T03:02:53;96784.56;;;9.80;100.00
70954;BME280;58618;47.490;8.736;2023-05-19T03:05:41;96779.41;;;9.74;100.00
70954;BME280;58618;47.490;8.736;2023-05-19T03:08:28;96776.34;;;9.67;100.00
70954;BME280;58618;47.490;8.736;2023-05-19T03:11:16;96780.72;;;9.62;100.00
70954;BME280;58618;47.490;8.736;2023-05-19T03:14:04;96777.38;;;9.66;100.00
70954;BME280;58618;47.490;8.736;2023-05-19T03:16:54;96776.84;;;9.59;100.00
70954;BME280;58618;47.490;8.736;2023-05-19T03:19:41;96767.59;;;9.53;100.00
70954;BME280;58618;47.490;8.736;2023-05-19T03:22:29;96767.06;;;9.41;100.00
70954;BME280;58618;47.490;8.736;2023-05-19T03:25:17;96771.72;;;9.34;100.00
70954;BME280;58618;47.490;8.736;2023-05-19T03:28:04;96765.78;;;9.23;100.00
70954;BME280;58618;47.490;8.736;2023-05-19T03:30:53;96769.13;;;9.19;100.00
70954;BME280;58618;47.490;8.736;2023-05-19T03:33:40;96777.88;;;9.08;100.00
70954;BME280;58618;47.490;8.736;2023-05-19T03:36:27;96777.34;;;9.06;100.00
70954;BME280;58618;47.490;8.736;2023-05-19T03:39:17;96777.34;;;9.01;100.00
70954;BME280;58618;47.490;8.736;2023-05-19T03:42:05;96776.84;;;8.99;100.00
70954;BME280;58618;47.490;8.736;2023-05-19T03:44:52;96772.44;;;9.04;100.00
70954;BME280;58618;47.490;8.736;2023-05-19T03:47:41;96773.75;;;9.02;100.00
70954;BME280;58618;47.490;8.736;2023-05-19T03:50:28;96782.47;;;9.01;100.00
70954;BME280;58618;47.490;8.736;2023-05-19T03:53:16;96780.91;;;8.95;100.00
70954;BME280;58618;47.490;8.736;2023-05-19T03:56:04;96781.94;;;8.94;100.00
70954;BME280;58618;47.490;8.736;2023-05-19T03:58:52;96778.09;;;9.01;100.00
70954;BME280;58618;47.490;8.736;2023-05-19T04:01:40;96780.44;;;9.03;100.00
70954;BME280;58618;47.490;8.736;2023-05-19T04:04:29;96783.00;;;9.03;100.00
70954;BME280;58618;47.490;8.736;2023-05-19T04:07:16;96782.72;;;9.04;100.00
70954;BME280;58618;47.490;8.736;2023-05-19T04:10:04;96775.28;;;9.08;100.00
70954;BME280;58618;47.490;8.736;2023-05-19T04:12:52;96782.25;;;9.07;100.00
70954;BME280;58618;47.490;8.736;2023-05-19T04:15:39;96784.28;;;9.10;100.00
70954;BME280;58618;47.490;8.736;2023-05-19T04:18:26;96784.56;;;9.14;100.00
70954;BME280;58618;47.490;8.736;2023-05-19T04:21:15;96778.66;;;9.18;100.00
70954;BME280;58618;47.490;8.736;2023-05-19T04:24:03;96792.03;;;9.20;100.00
70954;BME280;58618;47.490;8.736;2023-05-19T04:26:51;96792.78;;;9.21;100.00
70954;BME280;58618;47.490;8.736;2023-05-19T04:29:38;96789.44;;;9.25;100.00
70954;BME280;58618;47.490;8.736;2023-05-19T04:32:26;96792.31;;;9.34;100.00
70954;BME280;58618;47.490;8.736;2023-05-19T04:35:14;96800.28;;;9.43;100.00
70954;BME280;58618;47.490;8.736;2023-05-19T04:38:03;96803.63;;;9.48;100.00
70954;BME280;58618;47.490;8.736;2023-05-19T04:40:51;96795.91;;;9.53;100.00
70954;BME280;58618;47.490;8.736;2023-05-19T04:43:38;96814.47;;;9.65;100.00
70954;BME280;58618;47.490;8.736;2023-05-19T04:46:26;96808.00;;;9.68;100.00
70954;BME280;58618;47.490;8.736;2023-05-19T04:49:15;96805.94;;;9.70;100.00
70954;BME280;58618;47.490;8.736;2023-05-19T04:52:05;96813.16;;;9.73;100.00
70954;BME280;58618;47.490;8.736;2023-05-19T04:54:54;96807.75;;;9.74;100.00
70954;BME280;58618;47.490;8.736;2023-05-19T04:57:41;96800.53;;;9.77;100.00
70954;BME280;58618;47.490;8.736;2023-05-19T05:00:29;96805.69;;;9.87;100.00
70954;BME280;58618;47.490;8.736;2023-05-19T05:03:16;96813.63;;;10.05;100.00
70954;BME280;58618;47.490;8.736;2023-05-19T05:06:04;96809.53;;;10.09;100.00
70954;BME280;58618;47.490;8.736;2023-05-19T05:08:51;96813.91;;;9.89;100.00
70954;BME280;58618;47.490;8.736;2023-05-19T05:11:40;96811.34;;;9.94;100.00
70954;BME280;58618;47.490;8.736;2023-05-19T05:14:28;96810.84;;;9.87;100.00
70954;BME280;58618;47.490;8.736;2023-05-19T05:17:16;96812.38;;;9.98;100.00
70954;BME280;58618;47.490;8.736;2023-05-19T05:20:04;96811.59;;;9.92;100.00
70954;BME280;58618;47.490;8.736;2023-05-19T05:22:52;96812.34;;;10.08;100.00
70954;BME280;58618;47.490;8.736;2023-05-19T05:25:41;96804.66;;;9.93;100.00
70954;BME280;58618;47.490;8.736;2023-05-19T05:28:30;96803.09;;;10.02;100.00
70954;BME280;58618;47.490;8.736;2023-05-19T05:31:17;96810.03;;;9.96;100.00
70954;BME280;58618;47.490;8.736;2023-05-19T05:34:05;96807.72;;;9.95;100.00
70954;BME280;58618;47.490;8.736;2023-05-19T05:36:52;96807.44;;;10.16;100.00
70954;BME280;58618;47.490;8.736;2023-05-19T05:39:40;96812.63;;;10.01;100.00
70954;BME280;58618;47.490;8.736;2023-05-19T05:42:27;96809.25;;;10.16;100.00
70954;BME280;58618;47.490;8.736;2023-05-19T05:45:16;96804.59;;;10.13;100.00
70954;BME280;58618;47.490;8.736;2023-05-19T05:48:04;96811.31;;;10.14;100.00
70954;BME280;58618;47.490;8.736;2023-05-19T05:50:52;96808.75;;;10.09;100.00
70954;BME280;58618;47.490;8.736;2023-05-19T05:53:40;96814.69;;;10.09;100.00
70954;BME280;58618;47.490;8.736;2023-05-19T05:56:31;96806.69;;;10.16;100.00
70954;BME280;58618;47.490;8.736;2023-05-19T05:59:18;96811.31;;;10.14;100.00
70954;BME280;58618;47.490;8.736;2023-05-19T06:02:07;96806.16;;;10.14;100.00
70954;BME280;58618;47.490;8.736;2023-05-19T06:04:54;96801.50;;;10.11;100.00
70954;BME280;58618;47.490;8.736;2023-05-19T06:07:42;96807.72;;;10.15;100.00
70954;BME280;58618;47.490;8.736;2023-05-19T06:10:30;96815.19;;;10.16;100.00
70954;BME280;58618;47.490;8.736;2023-05-19T06:13:17;96805.63;;;10.27;100.00
70954;BME280;58618;47.490;8.736;2023-05-19T06:16:07;96803.59;;;10.19;100.00
70954;BME280;58618;47.490;8.736;2023-05-19T06:18:56;96801.00;;;10.14;100.00
70954;BME280;58618;47.490;8.736;2023-05-19T06:21:44;96809.00;;;10.23;100.00
70954;BME280;58618;47.490;8.736;2023-05-19T06:24:31;96808.75;;;10.19;100.00
70954;BME280;58618;47.490;8.736;2023-05-19T06:27:19;96804.09;;;10.16;100.00
70954;BME280;58618;47.490;8.736;2023-05-19T06:30:07;96808.69;;;10.39;100.00
70954;BME280;58618;47.490;8.736;2023-05-19T06:32:55;96811.22;;;10.54;100.00
70954;BME280;58618;47.490;8.736;2023-05-19T06:35:43;96802.94;;;10.52;100.00
70954;BME280;58618;47.490;8.736;2023-05-19T06:38:31;96814.78;;;10.58;100.00
70954;BME280;58618;47.490;8.736;2023-05-19T06:41:18;96814.81;;;10.53;100.00
70954;BME280;58618;47.490;8.736;2023-05-19T06:44:06;96821.47;;;10.70;100.00
70954;BME280;58618;47.490;8.736;2023-05-19T06:46:54;96812.75;;;10.55;100.00
70954;BME280;58618;47.490;8.736;2023-05-19T06:49:41;96818.44;;;10.52;100.00
70954;BME280;58618;47.490;8.736;2023-05-19T06:52:30;96819.50;;;10.46;100.00
70954;BME280;58618;47.490;8.736;2023-05-19T06:55:17;96818.97;;;10.49;100.00
70954;BME280;58618;47.490;8.736;2023-05-19T06:58:04;96815.84;;;10.57;100.00
70954;BME280;58618;47.490;8.736;2023-05-19T07:00:52;96823.59;;;10.52;100.00
70954;BME280;58618;47.490;8.736;2023-05-19T07:03:39;96818.41;;;10.63;100.00
70954;BME280;58618;47.490;8.736;2023-05-19T07:06:26;96820.56;;;10.35;100.00
70954;BME280;58618;47.490;8.736;2023-05-19T07:09:15;96825.94;;;10.44;100.00
70954;BME280;58618;47.490;8.736;2023-05-19T07:12:02;96818.47;;;10.42;100.00
70954;BME280;58618;47.490;8.736;2023-05-19T07:14:50;96818.47;;;10.42;100.00
70954;BME280;58618;47.490;8.736;2023-05-19T07:17:37;96821.56;;;10.44;100.00
70954;BME280;58618;47.490;8.736;2023-05-19T07:20:24;96826.16;;;10.63;100.00
70954;BME280;58618;47.490;8.736;2023-05-19T07:23:12;96829.16;;;10.80;100.00
70954;BME280;58618;47.490;8.736;2023-05-19T07:26:00;96823.94;;;10.90;100.00
70954;BME280;58618;47.490;8.736;2023-05-19T07:28:48;96820.16;;;10.77;100.00
70954;BME280;58618;47.490;8.736;2023-05-19T07:31:36;96821.94;;;10.82;100.00
70954;BME280;58618;47.490;8.736;2023-05-19T07:34:24;96816.31;;;10.70;100.00
70954;BME280;58618;47.490;8.736;2023-05-19T07:37:11;96824.09;;;10.59;100.00
70954;BME280;58618;47.490;8.736;2023-05-19T07:39:58;96818.44;;;10.52;100.00
70954;BME280;58618;47.490;8.736;2023-05-19T07:42:48;96815.25;;;10.76;100.00
70954;BME280;58618;47.490;8.736;2023-05-19T07:45:35;96822.94;;;10.86;100.00
70954;BME280;58618;47.490;8.736;2023-05-19T07:48:23;96825.88;;;10.64;100.00
70954;BME280;58618;47.490;8.736;2023-05-19T07:51:11;96826.59;;;10.75;100.00
70954;BME280;58618;47.490;8.736;2023-05-19T07:53:58;96825.03;;;10.84;100.00
70954;BME280;58618;47.490;8.736;2023-05-19T07:56:46;96821.06;;;11.01;100.00
70954;BME280;58618;47.490;8.736;2023-05-19T07:59:34;96822.19;;;11.29;100.00
70954;BME280;58618;47.490;8.736;2023-05-19T08:02:22;96817.94;;;11.10;100.00
70954;BME280;58618;47.490;8.736;2023-05-19T08:05:09;96830.22;;;11.23;100.00
70954;BME280;58618;47.490;8.736;2023-05-19T08:07:56;96830.16;;;10.94;100.00
70954;BME280;58618;47.490;8.736;2023-05-19T08:10:43;96817.66;;;11.06;100.00
70954;BME280;58618;47.490;8.736;2023-05-19T08:13:31;96811.00;;;11.00;100.00
70954;BME280;58618;47.490;8.736;2023-05-19T08:16:21;96818.56;;;11.30;100.00
70954;BME280;58618;47.490;8.736;2023-05-19T08:19:08;96822.47;;;11.23;100.00
70954;BME280;58618;47.490;8.736;2023-05-19T08:21:56;96819.41;;;11.21;100.00
70954;BME280;58618;47.490;8.736;2023-05-19T08:24:48;96816.03;;;11.25;100.00
70954;BME280;58618;47.490;8.736;2023-05-19T08:27:36;96805.78;;;11.10;100.00
70954;BME280;58618;47.490;8.736;2023-05-19T08:30:24;96800.13;;;11.08;100.00
70954;BME280;58618;47.490;8.736;2023-05-19T08:33:12;96809.06;;;10.77;100.00
70954;BME280;58618;47.490;8.736;2023-05-19T08:35:59;96803.81;;;10.92;100.00
70954;BME280;58618;47.490;8.736;2023-05-19T08:38:47;96801.78;;;10.89;100.00
70954;BME280;58618;47.490;8.736;2023-05-19T08:41:34;96801.19;;;11.02;100.00
70954;BME280;58618;47.490;8.736;2023-05-19T08:44:21;96793.94;;;11.04;100.00
70954;BME280;58618;47.490;8.736;2023-05-19T08:47:09;96793.34;;;11.17;100.00
70954;BME280;58618;47.490;8.736;2023-05-19T08:50:03;96792.59;;;11.51;100.00
70954;BME280;58618;47.490;8.736;2023-05-19T08:53:01;96790.19;;;11.25;100.00
70954;BME280;58618;47.490;8.736;2023-05-19T08:55:57;96800.34;;;11.51;100.00
70954;BME280;58618;47.490;8.736;2023-05-19T08:58:48;96799.63;;;11.79;99.53
70954;BME280;58618;47.490;8.736;2023-05-19T09:01:36;96798.31;;;11.81;100.00
70954;BME280;58618;47.490;8.736;2023-05-19T09:04:23;96792.63;;;11.46;100.00
70954;BME280;58618;47.490;8.736;2023-05-19T09:07:14;96802.41;;;11.49;100.00
70954;BME280;58618;47.490;8.736;2023-05-19T09:10:01;96792.78;;;11.59;100.00
70954;BME280;58618;47.490;8.736;2023-05-19T09:12:49;96791.41;;;11.33;100.00
70954;BME280;58618;47.490;8.736;2023-05-19T09:15:37;96790.88;;;11.41;100.00
70954;BME280;58618;47.490;8.736;2023-05-19T09:18:26;96793.50;;;11.65;100.00
70954;BME280;58618;47.490;8.736;2023-05-19T09:21:13;96795.44;;;11.83;100.00
70954;BME280;58618;47.490;8.736;2023-05-19T09:24:05;96789.88;;;11.66;100.00
70954;BME280;58618;47.490;8.736;2023-05-19T09:26:54;96784.81;;;12.13;98.70
70954;BME280;58618;47.490;8.736;2023-05-19T09:29:42;96792.94;;;12.02;100.00
70954;BME280;58618;47.490;8.736;2023-05-19T09:32:30;96785.00;;;12.17;99.42
70954;BME280;58618;47.490;8.736;2023-05-19T09:35:17;96789.19;;;12.60;98.29
70954;BME280;58618;47.490;8.736;2023-05-19T09:38:06;96778.50;;;12.67;97.42
70954;BME280;58618;47.490;8.736;2023-05-19T09:40:56;96788.84;;;12.24;99.75
70954;BME280;58618;47.490;8.736;2023-05-19T09:43:53;96767.94;;;12.63;95.77
70954;BME280;58618;47.490;8.736;2023-05-19T09:46:47;96779.72;;;12.51;98.18
70954;BME280;58618;47.490;8.736;2023-05-19T09:49:34;96784.28;;;12.59;98.02
70954;BME280;58618;47.490;8.736;2023-05-19T09:52:21;96788.56;;;13.06;95.47
70954;BME280;58618;47.490;8.736;2023-05-19T09:55:10;96785.50;;;12.85;95.05
70954;BME280;58618;47.490;8.736;2023-05-19T09:57:59;96789.47;;;12.59;94.68
70954;BME280;58618;47.490;8.736;2023-05-19T10:00:49;96785.56;;;12.80;94.84
70954;BME280;58618;47.490;8.736;2023-05-19T10:03:37;96786.19;;;12.72;95.13
70954;BME280;58618;47.490;8.736;2023-05-19T10:06:25;96781.47;;;12.79;95.26
70954;BME280;58618;47.490;8.736;2023-05-19T10:09:13;96768.91;;;12.86;93.74
70954;BME280;58618;47.490;8.736;2023-05-19T10:12:02;96782.25;;;12.56;97.03
70954;BME280;58618;47.490;8.736;2023-05-19T10:14:53;96783.88;;;12.70;96.16
70954;BME280;58618;47.490;8.736;2023-05-19T10:17:42;96782.47;;;13.21;90.93
70954;BME280;58618;47.490;8.736;2023-05-19T10:20:30;96776.53;;;12.96;93.52
70954;BME280;58618;47.490;8.736;2023-05-19T10:23:19;96779.84;;;12.83;94.07
70954;BME280;58618;47.490;8.736;2023-05-19T10:26:08;96774.81;;;12.92;93.38
70954;BME280;58618;47.490;8.736;2023-05-19T10:28:57;96780.50;;;12.51;97.60
70954;BME280;58618;47.490;8.736;2023-05-19T10:31:46;96775.44;;;12.41;98.65
70954;BME280;58618;47.490;8.736;2023-05-19T10:38:05;96774.88;;;13.05;92.30
70954;BME280;58618;47.490;8.736;2023-05-19T10:41:03;96772.91;;;13.35;93.12
70954;BME280;58618;47.490;8.736;2023-05-19T10:44:00;96737.28;;;13.08;91.37
70954;BME280;58618;47.490;8.736;2023-05-19T10:46:50;96772.59;;;13.55;90.97
70954;BME280;58618;47.490;8.736;2023-05-19T10:49:38;96772.03;;;13.26;91.44
70954;BME280;58618;47.490;8.736;2023-05-19T10:52:25;96770.06;;;13.50;91.34
70954;BME280;58618;47.490;8.736;2023-05-19T10:55:44;96765.19;;;13.16;90.40
70954;BME280;58618;47.490;8.736;2023-05-19T10:58:40;96769.38;;;13.44;90.31
70954;BME280;58618;47.490;8.736;2023-05-19T11:01:35;96771.44;;;13.61;91.88
70954;BME280;58618;47.490;8.736;2023-05-19T11:04:39;96768.94;;;13.24;94.74
70954;BME280;58618;47.490;8.736;2023-05-19T11:07:32;96773.00;;;13.30;93.35
70954;BME280;58618;47.490;8.736;2023-05-19T11:10:21;96766.53;;;13.27;94.86
70954;BME280;58618;47.490;8.736;2023-05-19T11:13:18;96759.00;;;13.63;93.58
70954;BME280;58618;47.490;8.736;2023-05-19T11:16:06;96755.56;;;13.81;90.18
70954;BME280;58618;47.490;8.736;2023-05-19T11:18:54;96761.69;;;13.85;92.26
70954;BME280;58618;47.490;8.736;2023-05-19T11:21:47;96755.28;;;13.96;91.92
70954;BME280;58618;47.490;8.736;2023-05-19T11:24:36;96753.09;;;13.90;90.59
70954;BME280;58618;47.490;8.736;2023-05-19T11:27:25;96746.72;;;14.23;88.19
70954;BME280;58618;47.490;8.736;2023-05-19T11:30:13;96742.50;;;14.68;89.97
70954;BME280;58618;47.490;8.736;2023-05-19T11:33:02;96742.44;;;14.96;88.79
70954;BME280;58618;47.490;8.736;2023-05-19T11:35:50;96740.13;;;14.94;88.08
70954;BME280;58618;47.490;8.736;2023-05-19T11:38:41;96737.94;;;15.32;84.00
70954;BME280;58618;47.490;8.736;2023-05-19T11:41:29;96715.44;;;15.05;83.46
70954;BME280;58618;47.490;8.736;2023-05-19T11:44:16;96734.25;;;15.86;84.65
70954;BME280;58618;47.490;8.736;2023-05-19T11:47:04;96738.75;;;15.63;80.64
70954;BME280;58618;47.490;8.736;2023-05-19T11:49:53;96731.50;;;15.83;81.82
70954;BME280;58618;47.490;8.736;2023-05-19T11:52:43;96730.47;;;15.92;79.03
70954;BME280;58618;47.490;8.736;2023-05-19T11:55:32;96723.22;;;16.20;78.60
70954;BME280;58618;47.490;8.736;2023-05-19T11:58:24;96728.44;;;16.20;75.33
70954;BME280;58618;47.490;8.736;2023-05-19T12:01:12;96713.94;;;15.97;78.29
70954;BME280;58618;47.490;8.736;2023-05-19T12:03:59;96709.97;;;16.56;76.42
70954;BME280;58618;47.490;8.736;2023-05-19T12:06:47;96715.63;;;15.53;80.78
70954;BME280;58618;47.490;8.736;2023-05-19T12:09:35;96717.63;;;15.56;79.82
70954;BME280;58618;47.490;8.736;2023-05-19T12:12:24;96721.34;;;15.73;77.81
70954;BME280;58618;47.490;8.736;2023-05-19T12:15:11;96717.34;;;15.44;78.88
70954;BME280;58618;47.490;8.736;2023-05-19T12:18:00;96721.16;;;15.60;81.98
70954;BME280;58618;47.490;8.736;2023-05-19T12:20:47;96718.97;;;15.85;79.73
70954;BME280;58618;47.490;8.736;2023-05-19T12:23:35;96718.28;;;16.67;73.34
70954;BME280;58618;47.490;8.736;2023-05-19T12:26:23;96719.78;;;15.94;77.06
70954;BME280;58618;47.490;8.736;2023-05-19T12:29:13;96721.97;;;16.09;74.95
70954;BME280;58618;47.490;8.736;2023-05-19T12:32:00;96716.81;;;16.26;74.62
70954;BME280;58618;47.490;8.736;2023-05-19T12:34:49;96723.16;;;15.41;78.79
70954;BME280;58618;47.490;8.736;2023-05-19T12:37:40;96717.63;;;15.56;78.64
70954;BME280;58618;47.490;8.736;2023-05-19T12:40:28;96709.28;;;15.77;77.67
70954;BME280;58618;47.490;8.736;2023-05-19T12:43:19;96707.09;;;15.61;78.40
70954;BME280;58618;47.490;8.736;2023-05-19T12:46:11;96702.63;;;15.53;80.41
70954;BME280;58618;47.490;8.736;2023-05-19T12:48:59;96705.78;;;15.50;78.21
70954;BME280;58618;47.490;8.736;2023-05-19T12:51:50;96700.19;;;15.57;78.48
70954;BME280;58618;47.490;8.736;2023-05-19T12:54:38;96695.97;;;15.16;79.73
70954;BME280;58618;47.490;8.736;2023-05-19T12:57:25;96691.06;;;15.15;79.22
70954;BME280;58618;47.490;8.736;2023-05-19T13:00:16;96686.56;;;15.60;78.45
70954;BME280;58618;47.490;8.736;2023-05-19T13:03:09;96691.78;;;15.99;75.45
70954;BME280;58618;47.490;8.736;2023-05-19T13:06:00;96692.13;;;15.76;77.49
70954;BME280;58618;47.490;8.736;2023-05-19T13:08:48;96684.88;;;15.95;77.20
70954;BME280;58618;47.490;8.736;2023-05-19T13:11:36;96685.50;;;16.00;75.38
70954;BME280;58618;47.490;8.736;2023-05-19T13:14:25;96686.28;;;16.01;76.08
70954;BME280;58618;47.490;8.736;2023-05-19T13:17:12;96676.88;;;15.83;74.64
70954;BME280;58618;47.490;8.736;2023-05-19T13:20:01;96682.84;;;15.83;74.13
70954;BME280;58618;47.490;8.736;2023-05-19T13:22:50;96681.91;;;15.48;76.97
70954;BME280;58618;47.490;8.736;2023-05-19T13:25:37;96687.94;;;15.35;76.34
70954;BME280;58618;47.490;8.736;2023-05-19T13:28:25;96688.56;;;15.32;77.65
70954;BME280;58618;47.490;8.736;2023-05-19T13:31:12;96698.97;;;15.32;76.55
70954;BME280;58618;47.490;8.736;2023-05-19T13:33:59;96692.31;;;15.48;76.16
70954;BME280;58618;47.490;8.736;2023-05-19T13:36:48;96688.88;;;15.39;75.90
70954;BME280;58618;47.490;8.736;2023-05-19T13:39:36;96689.41;;;15.50;78.62
70954;BME280;58618;47.490;8.736;2023-05-19T13:42:23;96686.78;;;15.41;75.72
70954;BME280;58618;47.490;8.736;2023-05-19T13:45:11;96686.66;;;15.24;76.60
70954;BME280;58618;47.490;8.736;2023-05-19T13:47:58;96685.31;;;15.04;77.57
70954;BME280;58618;47.490;8.736;2023-05-19T13:50:45;96689.75;;;15.26;78.38
70954;BME280;58618;47.490;8.736;2023-05-19T13:53:34;96687.50;;;15.33;74.96
70954;BME280;58618;47.490;8.736;2023-05-19T13:56:21;96686.59;;;15.38;76.53
70954;BME280;58618;47.490;8.736;2023-05-19T13:59:11;96688.13;;;15.39;76.30
70954;BME280;58618;47.490;8.736;2023-05-19T14:01:58;96682.72;;;15.04;76.99
70954;BME280;58618;47.490;8.736;2023-05-19T14:04:45;96687.50;;;15.11;77.14
70954;BME280;58618;47.490;8.736;2023-05-19T14:07:35;96687.28;;;15.21;76.12
70954;BME280;58618;47.490;8.736;2023-05-19T14:10:24;96694.53;;;14.88;78.46
70954;BME280;58618;47.490;8.736;2023-05-19T14:13:12;96690.94;;;14.98;77.66
70954;BME280;58618;47.490;8.736;2023-05-19T14:15:59;96690.47;;;14.96;77.06
70954;BME280;58618;47.490;8.736;2023-05-19T14:18:47;96688.94;;;15.17;77.88
70954;BME280;58618;47.490;8.736;2023-05-19T14:21:35;96690.09;;;15.33;76.05
70954;BME280;58618;47.490;8.736;2023-05-19T14:24:23;96688.88;;;15.39;75.88
70954;BME280;58618;47.490;8.736;2023-05-19T14:27:11;96687.47;;;15.55;74.18
70954;BME280;58618;47.490;8.736;2023-05-19T14:29:59;96689.13;;;15.29;74.25
70954;BME280;58618;47.490;8.736;2023-05-19T14:32:46;96685.56;;;15.16;74.18
70954;BME280;58618;47.490;8.736;2023-05-19T14:35:33;96699.78;;;15.19;74.37
70954;BME280;58618;47.490;8.736;2023-05-19T14:38:20;96690.47;;;14.96;76.60
70954;BME280;58618;47.490;8.736;2023-05-19T14:41:08;96692.19;;;15.00;77.91
70954;BME280;58618;47.490;8.736;2023-05-19T14:43:56;96688.13;;;14.36;80.32
70954;BME280;58618;47.490;8.736;2023-05-19T14:46:44;96691.50;;;14.36;81.94
70954;BME280;58618;47.490;8.736;2023-05-19T14:49:31;96688.31;;;14.53;80.37
70954;BME280;58618;47.490;8.736;2023-05-19T14:52:18;96694.63;;;14.33;81.28
70954;BME280;58618;47.490;8.736;2023-05-19T14:55:06;96697.94;;;14.12;82.84